Time;durP1;ratioP1;P1;durP2;ratioP2;P2;SDS_P1;SDS_P2;PMS_P1;PMS_P2;Temp;Humidity;BMP_temperature;BMP_pressure;BME280_temperature;BME280_humidity;BME280_pressure;Samples;Min_cycle;Max_cycle;Signal;HPM_P1;HPM_P2
2022/12/21 00:02:05;;;;;;;;;;;9.00;99.90;;;;;;5093570;28;19917;-41
2022/12/21 00:04:31;;;;;;;;;;;9.00;99.90;;;;;;5094290;28;19916;-38
2022/12/21 00:06:56;;;;;;;;;;;8.90;99.90;;;;;;5094433;28;20469;-38
2022/12/21 00:09:22;;;;;;;;;;;8.90;99.90;;;;;;5094428;28;19919;-40
2022/12/21 00:11:48;;;;;;;;;;;9.00;99.90;;;;;;5094254;28;20268;-39
2022/12/21 00:14:13;;;;;;;;;;;9.00;99.90;;;;;;5096066;28;19911;-44
2022/12/21 00:16:39;;;;;;;;;;;9.00;99.90;;;;;;5106360;28;19912;-41
2022/12/21 00:19:05;;;;;;;;;;;8.90;99.90;;;;;;5112267;28;20269;-42
2022/12/21 00:21:32;;;;;;;;;;;8.90;99.90;;;;;;5093182;28;19908;-40
2022/12/21 00:23:58;;;;;;;;;;;8.90;99.90;;;;;;5106806;28;19922;-40
2022/12/21 00:26:25;;;;;;;;;;;8.90;99.90;;;;;;5113999;28;20389;-40
2022/12/21 00:28:53;;;;;;;;;;;8.80;99.90;;;;;;5113084;28;19918;-42
2022/12/21 00:31:23;;;;;;;;;;;8.80;99.90;;;;;;5093655;28;19967;-40
2022/12/21 00:33:49;;;;;;;;;;;8.80;99.90;;;;;;5106426;28;20366;-41
2022/12/21 00:36:15;;;;;;;;;;;8.80;99.90;;;;;;5113264;28;19935;-44
2022/12/21 00:38:41;;;;;;;;;;;8.80;99.90;;;;;;5112162;28;19912;-39
2022/12/21 00:41:10;;;;;;;;;;;8.80;99.90;;;;;;5114144;28;20362;-39
2022/12/21 00:43:36;;;;;;;;;;;8.80;99.90;;;;;;5112724;28;19972;-41
2022/12/21 00:46:02;;;;;;;;;;;8.80;99.90;;;;;;5111998;28;19947;-41
2022/12/21 00:48:28;;;;;;;;;;;8.80;99.90;;;;;;5108900;27;19974;-40
2022/12/21 00:50:54;;;;;;;;;;;8.80;99.90;;;;;;5096003;28;19912;-39
2022/12/21 00:53:20;;;;;;;;;;;8.80;99.90;;;;;;5113507;28;19934;-40
2022/12/21 00:55:55;;;;;;;;;;;8.80;99.90;;;;;;5101311;28;19913;-40
2022/12/21 00:58:21;;;;;;;;;;;8.70;99.90;;;;;;5092790;28;19948;-42
2022/12/21 01:00:47;;;;;;;;;;;8.70;99.90;;;;;;5093318;28;20299;-43
2022/12/21 01:03:12;;;;;;;;;;;8.70;99.90;;;;;;5093297;28;19986;-39
2022/12/21 01:05:38;;;;;;;;;;;8.70;99.90;;;;;;5093327;28;19916;-40
2022/12/21 01:08:03;;;;;;;;;;;8.70;99.90;;;;;;5107545;28;19912;-42
2022/12/21 01:10:29;;;;;;;;;;;8.60;99.90;;;;;;5113012;28;19908;-39
2022/12/21 01:12:55;;;;;;;;;;;8.60;99.90;;;;;;5110603;28;19996;-41
2022/12/21 01:15:20;;;;;;;;;;;8.60;99.90;;;;;;5108498;28;20189;-40
2022/12/21 01:17:47;;;;;;;;;;;8.60;99.90;;;;;;5092355;28;20212;-41
2022/12/21 01:20:13;;;;;;;;;;;8.60;99.90;;;;;;5103597;28;19966;-41
2022/12/21 01:22:38;;;;;;;;;;;8.60;99.90;;;;;;5105516;28;20007;-43
2022/12/21 01:25:04;;;;;;;;;;;8.60;99.90;;;;;;5095226;28;19958;-40
2022/12/21 01:27:29;;;;;;;;;;;8.50;99.90;;;;;;5092792;28;20358;-41
2022/12/21 01:29:55;;;;;;;;;;;8.50;99.90;;;;;;5092818;28;19980;-40
2022/12/21 01:32:20;;;;;;;;;;;8.50;99.90;;;;;;5092250;28;19912;-41
2022/12/21 01:34:46;;;;;;;;;;;8.50;99.90;;;;;;5092689;28;19916;-41
2022/12/21 01:37:11;;;;;;;;;;;8.50;99.90;;;;;;5093949;28;19912;-40
2022/12/21 01:39:37;;;;;;;;;;;8.40;99.90;;;;;;5091949;28;19912;-43
2022/12/21 01:42:02;;;;;;;;;;;8.40;99.90;;;;;;5092747;28;19916;-39
2022/12/21 01:45:03;;;;;;;;;;;8.40;99.90;;;;;;5093636;28;19912;-40
2022/12/21 01:47:32;;;;;;;;;;;8.40;99.90;;;;;;5040116;28;20331;-42
2022/12/21 01:50:01;;;;;;;;;;;8.40;99.90;;;;;;5080820;28;19909;-39
2022/12/21 01:52:28;;;;;;;;;;;8.30;99.90;;;;;;5092653;28;19908;-41
2022/12/21 01:54:56;;;;;;;;;;;8.30;99.90;;;;;;5091684;28;20003;-43
2022/12/21 01:57:22;;;;;;;;;;;8.20;99.90;;;;;;5099976;28;20366;-41
2022/12/21 01:59:49;;;;;;;;;;;8.20;99.90;;;;;;5111888;28;19965;-40
2022/12/21 02:02:17;;;;;;;;;;;8.20;99.90;;;;;;5112902;28;19911;-39
2022/12/21 02:04:43;;;;;;;;;;;8.20;99.90;;;;;;5112648;28;19919;-39
2022/12/21 02:07:09;;;;;;;;;;;8.10;99.90;;;;;;5112337;28;20349;-41
2022/12/21 02:09:35;;;;;;;;;;;8.20;99.90;;;;;;5109328;28;19916;-40
2022/12/21 02:12:03;;;;;;;;;;;8.20;99.90;;;;;;5112647;28;19911;-42
2022/12/21 02:14:30;;;;;;;;;;;8.20;99.90;;;;;;5093157;28;20377;-40
2022/12/21 02:17:08;;;;;;;;;;;8.20;99.90;;;;;;5093709;28;19912;-40
2022/12/21 02:19:59;;;;;;;;;;;8.20;99.90;;;;;;5094064;28;19912;-41
2022/12/21 02:22:43;;;;;;;;;;;8.20;99.90;;;;;;5089199;28;20007;-43
2022/12/21 02:25:09;;;;;;;;;;;8.20;99.90;;;;;;5092525;28;19912;-45
2022/12/21 02:27:41;;;;;;;;;;;8.20;99.90;;;;;;5092205;28;19919;-42
2022/12/21 02:30:09;;;;;;;;;;;8.20;99.90;;;;;;5091465;28;19935;-42
2022/12/21 02:32:54;;;;;;;;;;;8.20;99.90;;;;;;5092620;28;19915;-43
2022/12/21 02:35:22;;;;;;;;;;;8.20;99.90;;;;;;5106254;28;19986;-40
2022/12/21 02:38:02;;;;;;;;;;;8.20;99.90;;;;;;5114283;28;19911;-39
2022/12/21 02:40:28;;;;;;;;;;;8.10;99.90;;;;;;5115738;28;20002;-42
2022/12/21 02:46:20;;;;;;;;;;;8.10;99.90;;;;;;5114272;28;19923;-41
2022/12/21 02:48:49;;;;;;;;;;;8.10;99.90;;;;;;5101542;28;20006;-40
2022/12/21 02:51:23;;;;;;;;;;;8.10;99.90;;;;;;5095072;28;19987;-40
2022/12/21 02:53:49;;;;;;;;;;;8.10;99.90;;;;;;5095677;28;20305;-42
2022/12/21 02:56:16;;;;;;;;;;;8.10;99.90;;;;;;5093853;28;20362;-41
2022/12/21 02:58:42;;;;;;;;;;;8.10;99.90;;;;;;5095629;28;19964;-40
2022/12/21 03:01:28;;;;;;;;;;;8.10;99.90;;;;;;5095631;28;19912;-41
2022/12/21 03:04:05;;;;;;;;;;;8.10;99.90;;;;;;5094709;28;19920;-42
2022/12/21 03:06:40;;;;;;;;;;;8.10;99.90;;;;;;5102902;28;19915;-40
2022/12/21 03:09:05;;;;;;;;;;;8.10;99.90;;;;;;5112303;28;19912;-40
2022/12/21 03:11:38;;;;;;;;;;;8.10;99.90;;;;;;5094507;28;20004;-40
2022/12/21 03:14:11;;;;;;;;;;;8.10;99.90;;;;;;5109497;28;19912;-40
2022/12/21 03:16:48;;;;;;;;;;;8.10;99.90;;;;;;5112884;28;20355;-41
2022/12/21 03:19:46;;;;;;;;;;;8.10;99.90;;;;;;5101984;28;20362;-41
2022/12/21 03:22:18;;;;;;;;;;;8.10;99.90;;;;;;5073509;28;19920;-42
2022/12/21 03:24:57;;;;;;;;;;;8.10;99.90;;;;;;5094258;28;19915;-41
2022/12/21 03:27:26;;;;;;;;;;;8.10;99.90;;;;;;5095072;28;20019;-42
2022/12/21 03:29:53;;;;;;;;;;;8.10;99.90;;;;;;5094832;28;19912;-41
2022/12/21 03:32:24;;;;;;;;;;;8.10;99.90;;;;;;5094346;28;19908;-42
2022/12/21 03:34:51;;;;;;;;;;;8.10;99.90;;;;;;5095024;28;20362;-42
2022/12/21 03:37:30;;;;;;;;;;;8.10;99.90;;;;;;5096076;28;19912;-42
2022/12/21 03:39:58;;;;;;;;;;;8.00;99.90;;;;;;5094094;28;19912;-41
2022/12/21 03:42:25;;;;;;;;;;;8.00;99.90;;;;;;5096340;28;20011;-42
2022/12/21 03:44:56;;;;;;;;;;;8.00;99.90;;;;;;5113574;28;19937;-42
2022/12/21 03:47:26;;;;;;;;;;;8.00;99.90;;;;;;5113915;28;19914;-42
2022/12/21 03:49:54;;;;;;;;;;;8.00;99.90;;;;;;5109385;28;19912;-42
2022/12/21 03:52:22;;;;;;;;;;;8.00;99.90;;;;;;5093840;28;19919;-42
2022/12/21 03:54:47;;;;;;;;;;;8.00;99.90;;;;;;5095744;28;19912;-43
2022/12/21 03:57:13;;;;;;;;;;;8.00;99.90;;;;;;5094596;28;20415;-41
2022/12/21 03:59:40;;;;;;;;;;;8.00;99.90;;;;;;5093676;28;19916;-41
2022/12/21 04:02:15;;;;;;;;;;;8.00;99.90;;;;;;5094694;28;19916;-41
2022/12/21 04:04:46;;;;;;;;;;;7.90;99.90;;;;;;5094298;28;19920;-40
2022/12/21 04:07:13;;;;;;;;;;;7.90;99.90;;;;;;5093665;28;19914;-41
2022/12/21 04:09:39;;;;;;;;;;;7.80;99.90;;;;;;5093902;28;20283;-42
2022/12/21 04:14:49;;;;;;;;;;;7.80;99.90;;;;;;5099007;28;20286;-42
2022/12/21 04:17:15;;;;;;;;;;;7.80;99.90;;;;;;5114242;28;19912;-40
2022/12/21 04:19:58;;;;;;;;;;;7.80;99.90;;;;;;5111727;28;19964;-41
2022/12/21 04:28:09;;;;;;;;;;;7.90;99.90;;;;;;5113706;28;19973;-42
2022/12/21 04:30:38;;;;;;;;;;;7.90;99.90;;;;;;5113722;28;19924;-41
2022/12/21 04:33:04;;;;;;;;;;;7.90;99.90;;;;;;5113935;28;19915;-39
2022/12/21 04:35:30;;;;;;;;;;;7.90;99.90;;;;;;5113153;28;20362;-41
2022/12/21 04:37:56;;;;;;;;;;;7.90;99.90;;;;;;5104420;28;19919;-39
2022/12/21 04:40:21;;;;;;;;;;;7.90;99.90;;;;;;5105041;28;19970;-41
2022/12/21 04:42:46;;;;;;;;;;;7.90;99.90;;;;;;5096473;28;19920;-42
2022/12/21 04:45:12;;;;;;;;;;;7.90;99.90;;;;;;5109950;28;19912;-41
2022/12/21 04:47:38;;;;;;;;;;;7.90;99.90;;;;;;5111451;28;19919;-41
2022/12/21 04:50:03;;;;;;;;;;;7.90;99.90;;;;;;5110866;28;19908;-43
2022/12/21 04:52:30;;;;;;;;;;;7.90;99.90;;;;;;5111673;28;20401;-41
2022/12/21 04:54:56;;;;;;;;;;;7.90;99.90;;;;;;5093312;28;19965;-41
2022/12/21 04:57:22;;;;;;;;;;;7.90;99.90;;;;;;5092625;28;20359;-40
2022/12/21 04:59:47;;;;;;;;;;;7.90;99.90;;;;;;5092411;28;19912;-41
2022/12/21 05:02:13;;;;;;;;;;;7.90;99.90;;;;;;5093389;28;20362;-43
2022/12/21 05:04:38;;;;;;;;;;;7.90;99.90;;;;;;5092483;28;20526;-40
2022/12/21 05:07:04;;;;;;;;;;;7.90;99.90;;;;;;5093318;28;19908;-41
2022/12/21 05:09:29;;;;;;;;;;;7.90;99.90;;;;;;5095182;28;19913;-39
2022/12/21 05:11:55;;;;;;;;;;;7.90;99.90;;;;;;5092345;28;19912;-44
2022/12/21 05:14:21;;;;;;;;;;;7.90;99.90;;;;;;5109705;28;20401;-40
2022/12/21 05:16:47;;;;;;;;;;;8.00;99.90;;;;;;5096773;28;19919;-40
2022/12/21 05:19:12;;;;;;;;;;;8.00;99.90;;;;;;5093028;28;19990;-42
2022/12/21 05:21:38;;;;;;;;;;;7.90;99.90;;;;;;5110364;28;19912;-43
2022/12/21 05:24:03;;;;;;;;;;;8.00;99.90;;;;;;5107905;28;19962;-41
2022/12/21 05:26:29;;;;;;;;;;;8.00;99.90;;;;;;5092950;28;20324;-42
2022/12/21 05:28:54;;;;;;;;;;;8.00;99.90;;;;;;5092920;28;19975;-41
2022/12/21 05:31:20;;;;;;;;;;;8.00;99.90;;;;;;5091684;28;20504;-41
2022/12/21 05:33:45;;;;;;;;;;;8.00;99.90;;;;;;5092840;28;19924;-42
2022/12/21 05:36:12;;;;;;;;;;;8.00;99.90;;;;;;5092787;28;19955;-45
2022/12/21 05:38:37;;;;;;;;;;;8.00;99.90;;;;;;5110149;28;19919;-41
2022/12/21 05:41:03;;;;;;;;;;;8.00;99.90;;;;;;5112918;28;20065;-41
2022/12/21 05:43:29;;;;;;;;;;;8.00;99.90;;;;;;5113172;28;19916;-40
2022/12/21 05:45:59;;;;;;;;;;;8.00;99.90;;;;;;5103069;28;19912;-44
2022/12/21 05:48:24;;;;;;;;;;;8.00;99.90;;;;;;5093747;28;20067;-41
2022/12/21 05:50:50;;;;;;;;;;;8.00;99.90;;;;;;5111738;28;20144;-45
2022/12/21 05:53:15;;;;;;;;;;;8.00;99.90;;;;;;5111489;28;19908;-42
2022/12/21 05:55:47;;;;;;;;;;;8.00;99.90;;;;;;5103632;28;20395;-39
2022/12/21 05:58:13;;;;;;;;;;;8.00;99.90;;;;;;5113057;28;19930;-44
2022/12/21 06:00:38;;;;;;;;;;;8.00;99.90;;;;;;5111932;28;20359;-43
2022/12/21 06:03:04;;;;;;;;;;;8.00;99.90;;;;;;5112620;28;19926;-42
2022/12/21 06:05:30;;;;;;;;;;;8.00;99.90;;;;;;5112844;28;20431;-43
2022/12/21 06:07:55;;;;;;;;;;;8.00;99.90;;;;;;5101573;28;20320;-41
2022/12/21 06:10:21;;;;;;;;;;;8.10;99.90;;;;;;5093753;28;19916;-46
2022/12/21 06:12:46;;;;;;;;;;;8.10;99.90;;;;;;5097585;28;20351;-42
2022/12/21 06:15:12;;;;;;;;;;;8.10;99.90;;;;;;5109483;28;19916;-41
2022/12/21 06:17:38;;;;;;;;;;;8.10;99.90;;;;;;5115333;28;19931;-42
2022/12/21 06:20:04;;;;;;;;;;;8.10;99.90;;;;;;5101744;28;19957;-41
2022/12/21 06:22:31;;;;;;;;;;;8.10;99.90;;;;;;5116449;28;19927;-42
2022/12/21 06:24:57;;;;;;;;;;;8.10;99.90;;;;;;5114948;27;19918;-40
2022/12/21 06:27:22;;;;;;;;;;;8.10;99.90;;;;;;5115507;28;19916;-40
2022/12/21 06:29:48;;;;;;;;;;;8.10;99.90;;;;;;5116197;28;19957;-42
2022/12/21 06:32:13;;;;;;;;;;;8.10;99.90;;;;;;5116330;28;20385;-41
2022/12/21 06:34:39;;;;;;;;;;;8.10;99.90;;;;;;5113521;28;19943;-40
2022/12/21 06:37:04;;;;;;;;;;;8.10;99.90;;;;;;5111040;28;19956;-41
2022/12/21 06:39:30;;;;;;;;;;;8.10;99.90;;;;;;5096024;28;19908;-42
2022/12/21 06:41:55;;;;;;;;;;;8.20;99.90;;;;;;5095106;28;19908;-43
2022/12/21 06:44:21;;;;;;;;;;;8.20;99.90;;;;;;5095942;28;20271;-42
2022/12/21 06:46:46;;;;;;;;;;;8.10;99.90;;;;;;5112152;28;19977;-40
2022/12/21 06:49:12;;;;;;;;;;;8.10;99.90;;;;;;5103507;28;19919;-42
2022/12/21 06:51:37;;;;;;;;;;;8.10;99.90;;;;;;5096978;28;19916;-40
2022/12/21 06:54:03;;;;;;;;;;;8.10;99.90;;;;;;5110204;28;20365;-43
2022/12/21 06:56:31;;;;;;;;;;;8.10;99.90;;;;;;5112449;28;20160;-41
2022/12/21 06:58:57;;;;;;;;;;;8.20;99.90;;;;;;5115799;28;19950;-42
2022/12/21 07:01:24;;;;;;;;;;;8.10;99.90;;;;;;5115777;28;19962;-41
2022/12/21 07:03:50;;;;;;;;;;;8.10;99.90;;;;;;5115268;28;19922;-42
2022/12/21 07:06:16;;;;;;;;;;;8.10;99.90;;;;;;5113336;28;19911;-42
2022/12/21 07:08:42;;;;;;;;;;;8.10;99.90;;;;;;5109241;28;19912;-42
2022/12/21 07:11:09;;;;;;;;;;;8.10;99.90;;;;;;5111720;28;19916;-41
2022/12/21 07:13:35;;;;;;;;;;;8.10;99.90;;;;;;5113984;28;20018;-41
2022/12/21 07:16:01;;;;;;;;;;;8.10;99.90;;;;;;5105200;28;19912;-41
2022/12/21 07:18:26;;;;;;;;;;;8.10;99.90;;;;;;5094783;28;19908;-43
2022/12/21 07:20:58;;;;;;;;;;;8.10;99.90;;;;;;5103770;28;19911;-43
2022/12/21 07:23:27;;;;;;;;;;;8.00;99.90;;;;;;5096291;28;20011;-43
2022/12/21 07:25:52;;;;;;;;;;;8.10;99.90;;;;;;5099243;28;19907;-43
2022/12/21 07:28:18;;;;;;;;;;;8.00;99.90;;;;;;5115482;28;20255;-41
2022/12/21 07:30:47;;;;;;;;;;;8.00;99.90;;;;;;5114637;28;19966;-44
2022/12/21 07:33:16;;;;;;;;;;;8.00;99.90;;;;;;5114278;28;19938;-44
2022/12/21 07:35:41;;;;;;;;;;;8.00;99.90;;;;;;5108809;28;20255;-43
2022/12/21 07:38:07;;;;;;;;;;;8.00;99.90;;;;;;5109139;28;19911;-44
2022/12/21 07:40:32;;;;;;;;;;;8.00;99.90;;;;;;5111321;27;19916;-44
2022/12/21 07:42:58;;;;;;;;;;;8.00;99.90;;;;;;5113687;28;20385;-42
2022/12/21 07:45:23;;;;;;;;;;;8.00;99.90;;;;;;5110230;28;19912;-41
2022/12/21 07:47:49;;;;;;;;;;;8.00;99.90;;;;;;5113681;28;19908;-44
2022/12/21 07:50:14;;;;;;;;;;;8.00;99.90;;;;;;5110250;28;19920;-40
2022/12/21 07:52:40;;;;;;;;;;;8.00;99.90;;;;;;5110339;28;19933;-43
2022/12/21 07:55:06;;;;;;;;;;;8.00;99.90;;;;;;5112907;28;19907;-43
2022/12/21 07:57:31;;;;;;;;;;;8.00;99.90;;;;;;5106473;28;19930;-43
2022/12/21 07:59:57;;;;;;;;;;;8.00;99.90;;;;;;5103582;28;19907;-44
2022/12/21 08:02:22;;;;;;;;;;;8.00;99.90;;;;;;5109862;28;20101;-44
2022/12/21 08:04:47;;;;;;;;;;;8.00;99.90;;;;;;5105314;28;20340;-42
2022/12/21 08:07:13;;;;;;;;;;;8.00;99.90;;;;;;5112117;28;19907;-42
2022/12/21 08:09:38;;;;;;;;;;;8.00;99.90;;;;;;5113146;28;19908;-42
2022/12/21 08:12:04;;;;;;;;;;;8.00;99.90;;;;;;5111319;28;19915;-42
2022/12/21 08:14:29;;;;;;;;;;;8.00;99.90;;;;;;5113844;28;19908;-41
2022/12/21 08:16:55;;;;;;;;;;;8.00;99.90;;;;;;5114693;28;20006;-45
2022/12/21 08:19:21;;;;;;;;;;;8.00;99.90;;;;;;5114483;28;19931;-43
2022/12/21 08:21:46;;;;;;;;;;;8.00;99.90;;;;;;5110140;28;19914;-41
2022/12/21 08:24:12;;;;;;;;;;;8.00;99.90;;;;;;5113312;28;19919;-41
2022/12/21 08:26:37;;;;;;;;;;;8.00;99.90;;;;;;5112968;28;19919;-40
2022/12/21 08:29:03;;;;;;;;;;;8.00;99.90;;;;;;5109974;28;19916;-42
2022/12/21 08:31:29;;;;;;;;;;;8.00;99.90;;;;;;5100923;28;19919;-42
2022/12/21 08:33:54;;;;;;;;;;;8.10;99.90;;;;;;5105307;28;19988;-43
2022/12/21 08:36:21;;;;;;;;;;;8.10;99.90;;;;;;5110664;28;19912;-42
2022/12/21 08:38:47;;;;;;;;;;;8.10;99.90;;;;;;5112577;28;19912;-42
2022/12/21 08:41:12;;;;;;;;;;;8.10;99.90;;;;;;5111743;28;19918;-44
2022/12/21 08:43:38;;;;;;;;;;;8.10;99.90;;;;;;5112582;28;19915;-42
2022/12/21 08:46:05;;;;;;;;;;;8.10;99.90;;;;;;5111221;28;19969;-43
2022/12/21 08:48:31;;;;;;;;;;;8.10;99.90;;;;;;5111705;28;19908;-42
2022/12/21 08:50:56;;;;;;;;;;;8.10;99.90;;;;;;5106517;28;20350;-43
2022/12/21 08:53:22;;;;;;;;;;;8.00;99.90;;;;;;5109989;27;20353;-41
2022/12/21 08:55:48;;;;;;;;;;;8.10;99.90;;;;;;5111160;28;19912;-40
2022/12/21 08:58:14;;;;;;;;;;;8.00;99.90;;;;;;5108036;28;19908;-42
2022/12/21 09:00:39;;;;;;;;;;;8.10;99.90;;;;;;5106187;28;19912;-44
2022/12/21 09:03:06;;;;;;;;;;;8.10;99.90;;;;;;5111525;28;19988;-41
2022/12/21 09:05:32;;;;;;;;;;;8.10;99.90;;;;;;5111745;28;19918;-41
2022/12/21 09:07:58;;;;;;;;;;;8.10;99.90;;;;;;5112457;27;19908;-43
2022/12/21 09:10:23;;;;;;;;;;;8.10;99.90;;;;;;5111474;28;19961;-41
2022/12/21 09:12:49;;;;;;;;;;;8.20;99.90;;;;;;5112289;28;19908;-44
2022/12/21 09:15:14;;;;;;;;;;;8.20;99.90;;;;;;5112143;28;20388;-41
2022/12/21 09:17:40;;;;;;;;;;;8.20;99.90;;;;;;5106575;28;19918;-44
2022/12/21 09:20:05;;;;;;;;;;;8.20;99.90;;;;;;5110723;28;19915;-42
2022/12/21 09:22:31;;;;;;;;;;;8.30;99.90;;;;;;5111467;28;20440;-44
2022/12/21 09:24:56;;;;;;;;;;;8.30;99.90;;;;;;5106241;28;19919;-41
2022/12/21 09:27:22;;;;;;;;;;;8.30;99.90;;;;;;5106523;28;20425;-42
2022/12/21 09:29:47;;;;;;;;;;;8.30;99.90;;;;;;5110595;28;19916;-41
2022/12/21 09:32:13;;;;;;;;;;;8.30;99.90;;;;;;5110983;28;19916;-42
2022/12/21 09:34:39;;;;;;;;;;;8.40;99.90;;;;;;5111948;28;19915;-42
2022/12/21 09:37:04;;;;;;;;;;;8.40;99.90;;;;;;5110975;28;20442;-42
2022/12/21 09:39:30;;;;;;;;;;;8.40;99.90;;;;;;5113115;28;19907;-42
2022/12/21 09:41:55;;;;;;;;;;;8.40;99.90;;;;;;5112924;28;19955;-41
2022/12/21 09:44:20;;;;;;;;;;;8.40;99.90;;;;;;5112345;28;19916;-42
2022/12/21 09:46:48;;;;;;;;;;;8.40;99.90;;;;;;5102691;28;19912;-43
2022/12/21 09:49:18;;;;;;;;;;;8.40;99.90;;;;;;5099959;28;19908;-43
2022/12/21 09:51:53;;;;;;;;;;;8.30;99.90;;;;;;5091616;28;20342;-40
2022/12/21 09:54:22;;;;;;;;;;;8.30;99.90;;;;;;5091895;28;19908;-42
2022/12/21 09:56:50;;;;;;;;;;;8.30;99.90;;;;;;5109364;28;20362;-41
2022/12/21 09:59:17;;;;;;;;;;;8.30;99.90;;;;;;5106401;28;19912;-40
2022/12/21 10:01:48;;;;;;;;;;;8.30;99.90;;;;;;5111762;28;19908;-42
2022/12/21 10:04:16;;;;;;;;;;;8.20;99.90;;;;;;5107516;28;19919;-41
2022/12/21 10:07:00;;;;;;;;;;;8.20;99.90;;;;;;5109161;28;19940;-43
2022/12/21 10:09:29;;;;;;;;;;;8.20;99.90;;;;;;5108203;28;19912;-44
2022/12/21 10:11:59;;;;;;;;;;;8.20;99.90;;;;;;5111508;28;19912;-41
2022/12/21 10:14:42;;;;;;;;;;;8.20;99.90;;;;;;5108004;28;19911;-43
2022/12/21 10:17:07;;;;;;;;;;;8.30;99.90;;;;;;5109335;28;19914;-43
2022/12/21 10:19:46;;;;;;;;;;;8.30;99.90;;;;;;5110495;28;20006;-43
2022/12/21 10:22:23;;;;;;;;;;;8.30;99.90;;;;;;5103315;28;19959;-40
2022/12/21 10:24:53;;;;;;;;;;;8.30;99.90;;;;;;5101383;28;19922;-42
2022/12/21 10:27:27;;;;;;;;;;;8.30;99.90;;;;;;5097734;28;20320;-42
2022/12/21 10:29:54;;;;;;;;;;;8.40;99.90;;;;;;5107798;28;19923;-44
2022/12/21 10:32:20;;;;;;;;;;;8.40;99.90;;;;;;5111782;28;19968;-42
2022/12/21 10:34:47;;;;;;;;;;;8.40;99.90;;;;;;5102114;28;19969;-43
2022/12/21 10:37:17;;;;;;;;;;;8.40;99.90;;;;;;5098815;28;21840;-44
2022/12/21 10:39:43;;;;;;;;;;;8.40;99.90;;;;;;5101583;28;20285;-42
2022/12/21 10:42:24;;;;;;;;;;;8.40;99.90;;;;;;5111920;28;19922;-43
2022/12/21 10:44:50;;;;;;;;;;;8.50;99.90;;;;;;5112450;28;20378;-40
2022/12/21 10:47:18;;;;;;;;;;;8.40;99.90;;;;;;5111838;28;20002;-44
2022/12/21 10:49:48;;;;;;;;;;;8.40;99.90;;;;;;5112395;28;19912;-42
2022/12/21 10:52:33;;;;;;;;;;;8.40;99.90;;;;;;5112625;28;19908;-42
2022/12/21 10:54:58;;;;;;;;;;;8.50;99.90;;;;;;5111821;28;19969;-40
2022/12/21 10:57:29;;;;;;;;;;;8.50;99.90;;;;;;5111592;28;19912;-41
2022/12/21 10:59:54;;;;;;;;;;;8.60;99.90;;;;;;5116260;28;19960;-41
2022/12/21 11:02:43;;;;;;;;;;;8.60;99.90;;;;;;5115089;28;19916;-42
2022/12/21 11:05:23;;;;;;;;;;;8.60;99.90;;;;;;5116123;28;20408;-42
2022/12/21 11:07:49;;;;;;;;;;;8.60;99.90;;;;;;5115957;28;19908;-42
2022/12/21 11:10:24;;;;;;;;;;;8.70;99.90;;;;;;5113050;28;19999;-44
2022/12/21 11:12:51;;;;;;;;;;;8.70;99.90;;;;;;5098134;28;20346;-43
2022/12/21 11:15:19;;;;;;;;;;;8.70;99.90;;;;;;5095962;28;20054;-42
2022/12/21 11:17:45;;;;;;;;;;;8.80;99.90;;;;;;5095206;28;19912;-41
2022/12/21 11:20:15;;;;;;;;;;;8.80;99.90;;;;;;5099199;28;19957;-43
2022/12/21 11:22:44;;;;;;;;;;;8.90;99.90;;;;;;5102634;28;19927;-41
2022/12/21 11:25:21;;;;;;;;;;;9.00;99.90;;;;;;5094305;28;20411;-45
2022/12/21 11:27:48;;;;;;;;;;;9.00;99.90;;;;;;5101221;28;19920;-42
2022/12/21 11:30:18;;;;;;;;;;;9.00;99.90;;;;;;5096649;28;19977;-42
2022/12/21 11:32:45;;;;;;;;;;;9.10;99.90;;;;;;5095950;28;19919;-42
2022/12/21 11:35:18;;;;;;;;;;;9.20;99.90;;;;;;5099329;28;19915;-43
2022/12/21 11:37:46;;;;;;;;;;;9.20;99.90;;;;;;5102712;28;19912;-41
2022/12/21 11:40:11;;;;;;;;;;;9.20;99.90;;;;;;5101247;28;19915;-43
2022/12/21 11:42:51;;;;;;;;;;;9.20;99.90;;;;;;5100114;28;19973;-43
2022/12/21 11:45:29;;;;;;;;;;;9.30;99.90;;;;;;5105063;28;19911;-42
2022/12/21 11:48:06;;;;;;;;;;;9.30;99.90;;;;;;5100455;28;19987;-42
2022/12/21 11:50:42;;;;;;;;;;;9.30;99.90;;;;;;5095789;28;19946;-49
2022/12/21 11:53:15;;;;;;;;;;;9.40;99.90;;;;;;5094510;28;19908;-43
2022/12/21 11:56:01;;;;;;;;;;;9.40;99.90;;;;;;5094748;28;19908;-42
2022/12/21 11:58:36;;;;;;;;;;;9.40;99.90;;;;;;5061959;28;19908;-43
2022/12/21 12:01:20;;;;;;;;;;;9.40;99.90;;;;;;5094578;28;19908;-41
2022/12/21 12:04:03;;;;;;;;;;;9.40;99.90;;;;;;5094692;28;19920;-42
2022/12/21 12:06:49;;;;;;;;;;;9.40;99.90;;;;;;5093472;28;20363;-41
2022/12/21 12:09:17;;;;;;;;;;;9.50;99.90;;;;;;5094032;28;20381;-41
2022/12/21 12:12:15;;;;;;;;;;;9.50;99.90;;;;;;5093626;28;19916;-45
2022/12/21 12:14:46;;;;;;;;;;;9.60;99.90;;;;;;5060330;28;19912;-43
2022/12/21 12:17:11;;;;;;;;;;;9.60;99.90;;;;;;5094255;28;19908;-42
2022/12/21 12:19:40;;;;;;;;;;;9.60;99.90;;;;;;5093422;28;20390;-43
2022/12/21 12:22:05;;;;;;;;;;;9.60;99.90;;;;;;5094014;28;19908;-40
2022/12/21 12:24:46;;;;;;;;;;;9.70;99.90;;;;;;5093981;28;19919;-42
2022/12/21 12:27:20;;;;;;;;;;;9.60;99.90;;;;;;5102483;28;20348;-42
2022/12/21 12:29:48;;;;;;;;;;;9.60;99.90;;;;;;5099484;28;19936;-41
2022/12/21 12:32:29;;;;;;;;;;;9.70;99.90;;;;;;5103918;28;19908;-41
2022/12/21 12:35:06;;;;;;;;;;;9.60;99.90;;;;;;5113633;28;19907;-45
2022/12/21 12:37:36;;;;;;;;;;;9.60;99.90;;;;;;5096109;28;19915;-45
2022/12/21 12:40:19;;;;;;;;;;;9.50;99.90;;;;;;5093087;28;19951;-42
2022/12/21 12:42:51;;;;;;;;;;;9.40;99.90;;;;;;5094194;28;20006;-43
2022/12/21 12:45:35;;;;;;;;;;;9.40;99.90;;;;;;5104330;28;20014;-42
2022/12/21 12:48:20;;;;;;;;;;;9.40;99.90;;;;;;5101883;28;19912;-44
2022/12/21 12:51:04;;;;;;;;;;;9.40;99.90;;;;;;5104333;28;19908;-43
2022/12/21 12:53:38;;;;;;;;;;;9.40;99.90;;;;;;5102035;28;19912;-42
2022/12/21 12:56:22;;;;;;;;;;;9.40;99.90;;;;;;5103981;28;19908;-42
2022/12/21 12:59:06;;;;;;;;;;;9.20;99.90;;;;;;5114641;28;19916;-41
2022/12/21 13:01:36;;;;;;;;;;;9.20;99.90;;;;;;5100614;28;19912;-43
2022/12/21 13:04:13;;;;;;;;;;;9.10;99.90;;;;;;5093954;28;19916;-40
2022/12/21 13:06:42;;;;;;;;;;;9.10;99.90;;;;;;5101022;28;19939;-43
2022/12/21 13:09:17;;;;;;;;;;;9.00;99.90;;;;;;5113886;28;19908;-43
2022/12/21 13:11:47;;;;;;;;;;;9.00;99.90;;;;;;5114456;28;20326;-45
2022/12/21 13:14:15;;;;;;;;;;;9.00;99.90;;;;;;5113875;28;19915;-44
2022/12/21 13:17:07;;;;;;;;;;;9.10;99.90;;;;;;5112689;28;19908;-42
2022/12/21 13:19:32;;;;;;;;;;;9.10;99.90;;;;;;5109901;28;20006;-46
2022/12/21 13:22:01;;;;;;;;;;;9.10;99.90;;;;;;5112838;28;19999;-45
2022/12/21 13:24:31;;;;;;;;;;;9.10;99.90;;;;;;5114166;28;20002;-41
2022/12/21 13:26:58;;;;;;;;;;;9.20;99.90;;;;;;5114224;28;19915;-43
2022/12/21 13:29:30;;;;;;;;;;;9.30;99.90;;;;;;5113517;28;19908;-40
2022/12/21 13:32:04;;;;;;;;;;;9.30;99.90;;;;;;5113900;28;19920;-42
2022/12/21 13:34:35;;;;;;;;;;;9.40;99.90;;;;;;5113787;28;20373;-41
2022/12/21 13:37:12;;;;;;;;;;;9.50;99.90;;;;;;5113632;28;20405;-42
2022/12/21 13:39:42;;;;;;;;;;;9.60;99.90;;;;;;5113910;28;19915;-44
2022/12/21 13:42:17;;;;;;;;;;;9.70;99.90;;;;;;5094536;28;19916;-41
2022/12/21 13:44:48;;;;;;;;;;;9.60;99.90;;;;;;5112944;28;19908;-42
2022/12/21 13:47:14;;;;;;;;;;;9.50;99.90;;;;;;5100963;28;19965;-43
2022/12/21 13:49:55;;;;;;;;;;;9.30;99.90;;;;;;5093502;28;19990;-41
2022/12/21 13:52:20;;;;;;;;;;;9.30;99.90;;;;;;5092203;28;19908;-43
2022/12/21 13:55:21;;;;;;;;;;;9.30;99.90;;;;;;5093427;28;19931;-41
2022/12/21 13:57:55;;;;;;;;;;;9.20;99.90;;;;;;5030398;28;19910;-43
2022/12/21 14:00:24;;;;;;;;;;;9.20;99.90;;;;;;5083458;28;19908;-42
2022/12/21 14:03:00;;;;;;;;;;;9.20;99.90;;;;;;5093362;28;19916;-41
2022/12/21 14:05:27;;;;;;;;;;;9.20;99.90;;;;;;5092708;28;19908;-42
2022/12/21 14:07:56;;;;;;;;;;;9.20;99.90;;;;;;5093161;28;19912;-42
2022/12/21 14:10:28;;;;;;;;;;;9.10;99.90;;;;;;5103095;28;19951;-43
2022/12/21 14:12:53;;;;;;;;;;;9.10;99.90;;;;;;5094028;28;19916;-42
2022/12/21 14:15:39;;;;;;;;;;;9.10;99.90;;;;;;5098466;28;19912;-42
2022/12/21 14:18:10;;;;;;;;;;;9.10;99.90;;;;;;5095624;28;20304;-42
2022/12/21 14:20:37;;;;;;;;;;;9.00;99.90;;;;;;5101514;28;19914;-40
2022/12/21 14:23:06;;;;;;;;;;;9.00;99.90;;;;;;5110227;28;19924;-41
2022/12/21 14:25:36;;;;;;;;;;;9.00;99.90;;;;;;5097236;28;19957;-41
2022/12/21 14:28:14;;;;;;;;;;;9.00;99.90;;;;;;5094145;28;19908;-42
2022/12/21 14:30:46;;;;;;;;;;;9.00;99.90;;;;;;5092525;28;20002;-41
2022/12/21 14:33:15;;;;;;;;;;;9.00;99.90;;;;;;5106947;28;20007;-42
2022/12/21 14:35:42;;;;;;;;;;;8.90;99.90;;;;;;5101116;28;19914;-40
2022/12/21 14:38:25;;;;;;;;;;;8.90;99.90;;;;;;5099272;28;19915;-43
2022/12/21 14:40:57;;;;;;;;;;;8.90;99.90;;;;;;5096493;28;19915;-42
2022/12/21 14:43:23;;;;;;;;;;;8.90;99.90;;;;;;5101813;28;19970;-47
2022/12/21 14:45:48;;;;;;;;;;;8.90;99.90;;;;;;5103796;28;19952;-42
2022/12/21 14:48:21;;;;;;;;;;;8.90;99.90;;;;;;5116690;28;20321;-41
2022/12/21 14:51:01;;;;;;;;;;;8.90;99.90;;;;;;5117122;27;19947;-43
2022/12/21 14:53:26;;;;;;;;;;;8.90;99.90;;;;;;5111604;28;19912;-42
2022/12/21 14:56:10;;;;;;;;;;;8.80;99.90;;;;;;5101374;28;20427;-43